createdAt,value
2018-03-26T00:02:12.969Z,19.73
2018-03-26T00:04:40.788Z,22.10
2018-03-26T00:07:08.402Z,20.83
2018-03-26T00:09:36.091Z,22.03
2018-03-26T00:12:03.816Z,21.70
2018-03-26T00:14:31.374Z,19.80
2018-03-26T00:16:58.955Z,12.70
2018-03-26T00:19:26.657Z,13.40
2018-03-26T00:21:54.220Z,11.50
2018-03-26T00:24:22.032Z,10.60
2018-03-26T00:26:49.641Z,9.97
2018-03-26T00:29:17.214Z,10.47
2018-03-26T00:31:44.771Z,10.47
2018-03-26T00:34:12.370Z,10.30
2018-03-26T00:36:39.919Z,9.67
2018-03-26T00:39:07.736Z,9.37
2018-03-26T00:41:35.299Z,9.80
2018-03-26T00:44:03.074Z,12.80
2018-03-26T00:46:30.645Z,25.67
2018-03-26T00:48:58.205Z,30.97
2018-03-26T00:51:25.774Z,30.57
2018-03-26T00:53:53.511Z,20.90
2018-03-26T00:56:21.070Z,15.43
2018-03-26T00:58:48.637Z,12.23
2018-03-26T01:01:16.194Z,13.30
2018-03-26T01:03:44.021Z,11.50
2018-03-26T01:06:11.836Z,14.27
2018-03-26T01:08:39.418Z,11.17
2018-03-26T01:11:07.003Z,15.13
2018-03-26T01:13:34.562Z,13.53
2018-03-26T01:16:02.125Z,11.97
2018-03-26T01:18:29.686Z,32.83
2018-03-26T01:20:57.259Z,37.60
2018-03-26T01:23:24.826Z,35.80
2018-03-26T01:25:52.549Z,33.33
2018-03-26T01:28:20.109Z,30.93
2018-03-26T01:30:47.672Z,32.63
2018-03-26T01:33:15.242Z,18.10
2018-03-26T01:35:42.846Z,10.17
2018-03-26T01:38:10.414Z,10.03
2018-03-26T01:40:38.187Z,8.40
2018-03-26T01:43:05.774Z,8.90
2018-03-26T01:45:33.343Z,24.77
2018-03-26T01:48:01.143Z,25.97
2018-03-26T01:50:28.745Z,23.47
2018-03-26T01:52:56.298Z,23.47
2018-03-26T01:55:23.869Z,23.20
2018-03-26T01:57:51.421Z,19.93
2018-03-26T02:00:18.990Z,22.10
2018-03-26T02:02:46.556Z,23.90
2018-03-26T02:05:14.165Z,20.00
2018-03-26T02:07:41.788Z,20.67
2018-03-26T02:10:09.601Z,19.10
2018-03-26T02:12:37.174Z,23.63
2018-03-26T02:15:04.789Z,27.20
2018-03-26T02:17:32.450Z,35.47
2018-03-26T02:20:00.010Z,31.27
2018-03-26T02:22:27.568Z,27.80
2018-03-26T02:24:55.186Z,22.60
2018-03-26T02:27:22.923Z,21.43
2018-03-26T02:29:50.503Z,19.87
2018-03-26T02:32:18.066Z,19.80
2018-03-26T02:34:45.670Z,22.23
2018-03-26T02:37:13.497Z,18.83
2018-03-26T02:39:41.105Z,30.43
2018-03-26T02:42:08.937Z,31.70
2018-03-26T02:44:36.494Z,32.07
2018-03-26T02:47:04.268Z,30.33
2018-03-26T02:49:31.825Z,30.97
2018-03-26T02:51:59.386Z,28.53
2018-03-26T02:54:26.970Z,24.57
2018-03-26T02:56:54.522Z,18.60
2018-03-26T02:59:22.258Z,17.50
2018-03-26T03:01:49.823Z,20.53
2018-03-26T03:04:17.593Z,18.57
2018-03-26T03:06:45.203Z,16.37
2018-03-26T03:09:12.929Z,15.90
2018-03-26T03:11:40.559Z,15.13
2018-03-26T03:14:08.178Z,14.93
2018-03-26T03:16:35.983Z,15.10
2018-03-26T03:19:03.803Z,14.23
2018-03-26T03:21:31.410Z,14.90
2018-03-26T03:23:58.990Z,15.40
2018-03-26T03:26:26.588Z,14.03
2018-03-26T03:28:54.185Z,13.07
2018-03-26T03:31:21.793Z,13.07
2018-03-26T03:33:49.380Z,26.80
2018-03-26T03:36:16.958Z,30.37
2018-03-26T03:38:44.740Z,31.13
2018-03-26T03:41:12.299Z,20.63
2018-03-26T03:43:40.081Z,13.77
2018-03-26T03:46:07.810Z,14.97
2018-03-26T03:48:35.620Z,14.07
2018-03-26T03:51:03.436Z,13.63
2018-03-26T03:53:30.993Z,13.83
2018-03-26T03:55:58.657Z,17.97
2018-03-26T03:58:26.227Z,32.10
2018-03-26T04:00:54.007Z,35.13
2018-03-26T04:03:21.691Z,32.03
2018-03-26T04:05:49.408Z,31.57
2018-03-26T04:08:17.049Z,29.57
2018-03-26T04:10:44.626Z,19.53
2018-03-26T04:13:12.195Z,17.90
2018-03-26T04:15:39.753Z,19.03
2018-03-26T04:18:07.337Z,22.83
2018-03-26T04:20:34.937Z,24.77
2018-03-26T04:23:02.496Z,29.97
2018-03-26T04:25:30.076Z,29.90
2018-03-26T04:27:57.634Z,24.33
2018-03-26T04:30:25.189Z,24.60
2018-03-26T04:32:52.754Z,27.60
2018-03-26T04:35:20.313Z,31.00
2018-03-26T04:37:47.891Z,30.13
2018-03-26T04:40:15.446Z,31.83
2018-03-26T04:42:43.001Z,33.93
2018-03-26T04:45:10.577Z,39.53
2018-03-26T04:47:38.141Z,40.97
2018-03-26T04:50:05.714Z,42.97
2018-03-26T04:52:33.274Z,40.47
2018-03-26T04:55:00.840Z,41.47
2018-03-26T04:57:28.575Z,37.77
2018-03-26T04:59:56.225Z,36.93
2018-03-26T05:02:23.802Z,45.27
2018-03-26T05:04:51.378Z,114.07
2018-03-26T05:07:18.933Z,51.67
2018-03-26T05:09:46.705Z,47.47
2018-03-26T05:12:14.303Z,39.43
2018-03-26T05:14:41.981Z,35.90
2018-03-26T05:17:09.533Z,35.90
2018-03-26T05:19:37.090Z,19.57
2018-03-26T05:22:04.674Z,18.00
2018-03-26T05:24:32.411Z,16.50
2018-03-26T05:26:59.998Z,50.83
2018-03-26T05:29:27.562Z,59.23
2018-03-26T05:31:55.122Z,41.63
2018-03-26T05:34:22.843Z,38.37
2018-03-26T05:36:50.397Z,36.77
2018-03-26T05:39:18.219Z,27.73
2018-03-26T05:41:46.038Z,34.83
2018-03-26T05:44:13.856Z,41.03
2018-03-26T05:46:41.424Z,52.77
2018-03-26T05:49:09.003Z,39.13
2018-03-26T05:51:36.565Z,43.27
2018-03-26T05:54:04.326Z,55.30
2018-03-26T05:56:31.900Z,47.10
2018-03-26T05:58:59.479Z,41.53
2018-03-26T06:01:27.046Z,41.30
2018-03-26T06:03:54.659Z,41.43
2018-03-26T06:06:22.215Z,38.03
2018-03-26T06:08:49.934Z,37.80
2018-03-26T06:11:17.753Z,35.63
2018-03-26T06:13:45.571Z,32.00
2018-03-26T06:16:13.150Z,36.87
2018-03-26T06:18:40.750Z,30.93
2018-03-26T06:21:08.525Z,30.33
2018-03-26T06:23:36.345Z,30.20
2018-03-26T06:26:03.980Z,35.73
2018-03-26T06:28:31.671Z,34.97
2018-03-26T06:30:59.283Z,32.50
2018-03-26T06:33:26.896Z,32.80
2018-03-26T06:35:54.498Z,37.27
2018-03-26T06:38:27.971Z,35.63
2018-03-26T06:40:55.609Z,39.10
2018-03-26T06:43:23.209Z,30.53
2018-03-26T06:45:50.769Z,40.93
2018-03-26T06:48:18.510Z,30.80
2018-03-26T06:50:46.138Z,29.27
2018-03-26T06:53:13.695Z,28.10
2018-03-26T06:55:41.264Z,31.27
2018-03-26T06:58:08.840Z,28.83
2018-03-26T07:00:36.615Z,32.37
2018-03-26T07:03:04.199Z,29.63
2018-03-26T07:05:31.765Z,31.53
2018-03-26T07:07:59.467Z,34.17
2018-03-26T07:10:27.042Z,41.50
2018-03-26T07:12:54.598Z,46.50
2018-03-26T07:15:22.165Z,29.50
2018-03-26T07:17:49.927Z,31.13
2018-03-26T07:20:17.519Z,29.73
2018-03-26T07:22:45.107Z,31.10
2018-03-26T07:25:12.911Z,37.07
2018-03-26T07:27:40.470Z,36.90
2018-03-26T07:30:08.033Z,49.50
2018-03-26T07:32:35.646Z,45.90
2018-03-26T07:35:03.482Z,36.50
2018-03-26T07:37:31.059Z,38.60
2018-03-26T07:39:58.820Z,38.70
2018-03-26T07:42:26.430Z,35.30
2018-03-26T07:44:54.028Z,45.23
2018-03-26T07:47:21.607Z,40.17
2018-03-26T07:49:49.221Z,37.90
2018-03-26T07:52:16.786Z,36.53
2018-03-26T07:54:44.524Z,36.70
2018-03-26T07:57:12.082Z,38.67
2018-03-26T07:59:39.694Z,36.07
2018-03-26T08:02:07.480Z,37.83
2018-03-26T08:04:35.034Z,35.50
2018-03-26T08:07:02.606Z,34.57
2018-03-26T08:09:30.217Z,37.23
2018-03-26T08:11:57.851Z,37.60
2018-03-26T08:14:25.567Z,35.20
2018-03-26T08:16:53.200Z,37.20
2018-03-26T08:19:20.801Z,35.53
2018-03-26T08:21:48.374Z,34.00
2018-03-26T08:24:15.950Z,35.53
2018-03-26T08:26:43.759Z,42.10
2018-03-26T08:29:11.575Z,40.60
2018-03-26T08:31:39.149Z,38.00
2018-03-26T08:34:06.808Z,37.67
2018-03-26T08:36:34.383Z,57.43
2018-03-26T08:39:02.032Z,49.47
2018-03-26T08:41:29.602Z,41.17
2018-03-26T08:43:57.194Z,36.77
2018-03-26T08:46:24.797Z,36.60
2018-03-26T08:48:52.369Z,40.80
2018-03-26T08:51:19.990Z,37.53
2018-03-26T08:53:47.755Z,37.57
2018-03-26T08:56:15.581Z,41.40
2018-03-26T08:58:43.158Z,38.47
2018-03-26T09:01:10.733Z,33.90
2018-03-26T09:03:38.374Z,32.93
2018-03-26T09:06:06.144Z,32.53
2018-03-26T09:08:33.868Z,40.63
2018-03-26T09:11:01.427Z,38.40
2018-03-26T09:13:28.982Z,31.00
2018-03-26T09:15:56.586Z,34.00
2018-03-26T09:18:24.154Z,31.83
2018-03-26T09:20:51.021Z,31.33
2018-03-26T09:23:18.935Z,33.50
2018-03-26T09:25:46.542Z,40.77
2018-03-26T09:28:14.106Z,35.07
2018-03-26T09:30:41.924Z,35.20
2018-03-26T09:33:09.495Z,31.63
2018-03-26T09:35:37.150Z,31.93
2018-03-26T09:38:04.790Z,36.67
2018-03-26T09:40:32.544Z,34.13
2018-03-26T09:43:00.190Z,31.00
2018-03-26T09:45:27.929Z,35.27
2018-03-26T09:47:55.753Z,33.87
2018-03-26T09:50:23.458Z,32.00
2018-03-26T09:52:51.031Z,34.57
2018-03-26T09:55:18.717Z,46.17
2018-03-26T09:57:46.288Z,38.47
2018-03-26T10:00:14.129Z,38.80
2018-03-26T10:02:41.856Z,44.00
2018-03-26T10:05:09.442Z,45.27
2018-03-26T10:07:37.151Z,35.80
2018-03-26T10:10:04.758Z,45.87
2018-03-26T10:12:32.513Z,40.03
2018-03-26T10:15:00.066Z,35.97
2018-03-26T10:17:27.758Z,38.60
2018-03-26T10:19:55.367Z,43.37
2018-03-26T10:22:22.939Z,40.57
2018-03-26T10:24:50.718Z,33.20
2018-03-26T10:27:18.287Z,31.00
2018-03-26T10:29:45.853Z,32.07
2018-03-26T10:32:13.414Z,31.53
2018-03-26T10:34:41.030Z,33.77
2018-03-26T10:37:08.601Z,33.27
2018-03-26T10:39:36.326Z,64.00
2018-03-26T10:42:04.105Z,35.53
2018-03-26T10:44:31.669Z,43.13
2018-03-26T10:46:59.256Z,34.67
2018-03-26T10:49:26.954Z,37.63
2018-03-26T10:51:54.606Z,32.63
2018-03-26T10:54:22.170Z,54.93
2018-03-26T10:56:49.741Z,45.10
2018-03-26T10:59:17.318Z,77.30
2018-03-26T11:01:44.875Z,31.13
2018-03-26T11:04:12.696Z,30.00
2018-03-26T11:06:40.294Z,30.23
2018-03-26T11:09:08.032Z,31.63
2018-03-26T11:11:35.628Z,28.27
2018-03-26T11:14:03.476Z,30.20
2018-03-26T11:16:31.296Z,36.40
2018-03-26T11:18:58.882Z,32.90
2018-03-26T11:21:26.732Z,36.33
2018-03-26T11:23:54.549Z,30.93
2018-03-26T11:26:22.239Z,29.77
2018-03-26T11:28:49.825Z,37.30
2018-03-26T11:31:17.414Z,43.60
2018-03-26T11:33:45.015Z,38.30
2018-03-26T11:36:12.647Z,33.03
2018-03-26T11:38:40.529Z,51.00
2018-03-26T11:41:08.172Z,29.40
2018-03-26T11:43:35.961Z,29.30
2018-03-26T11:46:03.703Z,29.20
2018-03-26T11:48:31.297Z,28.43
2018-03-26T11:50:58.954Z,28.33
2018-03-26T11:53:26.560Z,29.63
2018-03-26T11:55:54.150Z,33.60
2018-03-26T11:58:21.746Z,32.90
2018-03-26T12:00:49.350Z,29.80
2018-03-26T12:03:17.118Z,32.57
2018-03-26T12:05:44.719Z,34.90
2018-03-26T12:08:12.366Z,39.90
2018-03-26T12:10:40.191Z,38.53
2018-03-26T12:13:07.820Z,36.40
2018-03-26T12:15:35.514Z,61.23
2018-03-26T12:18:03.102Z,45.53
2018-03-26T12:20:42.529Z,35.43
2018-03-26T12:23:21.855Z,32.73
2018-03-26T12:25:49.519Z,32.80
2018-03-26T12:28:29.102Z,37.13
2018-03-26T12:30:56.754Z,37.33
2018-03-26T12:33:24.342Z,34.47
2018-03-26T12:35:55.789Z,31.87
2018-03-26T12:38:23.383Z,34.60
2018-03-26T12:40:58.918Z,31.83
2018-03-26T12:43:26.509Z,33.23
2018-03-26T12:46:06.049Z,34.33
2018-03-26T12:48:33.649Z,38.83
2018-03-26T12:51:13.037Z,32.17
2018-03-26T12:53:40.816Z,33.13
2018-03-26T12:56:08.442Z,35.73
2018-03-26T12:58:50.823Z,34.23
2018-03-26T13:01:30.292Z,30.20
2018-03-26T13:03:58.110Z,33.80
2018-03-26T13:06:25.929Z,31.13
2018-03-26T13:08:53.582Z,37.77
2018-03-26T13:11:21.176Z,35.30
2018-03-26T13:13:48.811Z,29.50
2018-03-26T13:16:16.408Z,37.30
2018-03-26T13:18:44.014Z,39.20
2018-03-26T13:21:11.680Z,30.73
2018-03-26T13:23:39.257Z,28.40
2018-03-26T13:26:06.957Z,36.77
2018-03-26T13:28:34.566Z,71.17
2018-03-26T13:31:02.150Z,38.37
2018-03-26T13:33:29.839Z,42.50
2018-03-26T13:35:57.481Z,38.53
2018-03-26T13:38:25.072Z,42.57
2018-03-26T13:40:52.879Z,41.63
2018-03-26T13:43:20.697Z,40.80
2018-03-26T13:45:48.316Z,42.60
2018-03-26T13:48:15.909Z,38.03
2018-03-26T13:50:43.538Z,36.70
2018-03-26T13:53:11.376Z,47.17
2018-03-26T13:55:39.189Z,43.40
2018-03-26T13:58:07.011Z,38.50
2018-03-26T14:00:34.661Z,39.90
2018-03-26T14:03:02.274Z,39.10
2018-03-26T14:05:29.898Z,44.53
2018-03-26T14:07:57.649Z,41.07
2018-03-26T14:10:36.998Z,41.37
2018-03-26T14:16:20.127Z,40.80
2018-03-26T14:18:47.960Z,41.10
2018-03-26T14:21:15.658Z,40.53
2018-03-26T14:23:43.419Z,38.93
2018-03-26T14:26:11.076Z,38.30
2018-03-26T14:28:38.833Z,38.07
2018-03-26T14:31:06.655Z,37.13
2018-03-26T14:33:34.474Z,40.60
2018-03-26T14:36:02.293Z,42.20
2018-03-26T14:38:30.107Z,38.63
2018-03-26T14:40:57.816Z,40.97
2018-03-26T14:43:25.611Z,37.57
2018-03-26T14:45:53.210Z,38.07
2018-03-26T14:48:20.867Z,40.83
2018-03-26T14:50:48.465Z,37.03
2018-03-26T14:53:16.062Z,37.43
2018-03-26T14:55:43.667Z,37.20
2018-03-26T14:58:11.259Z,43.33
2018-03-26T15:00:39.069Z,45.13
2018-03-26T15:03:06.866Z,42.43
2018-03-26T15:05:34.517Z,49.93
2018-03-26T15:08:02.111Z,53.97
2018-03-26T15:10:29.697Z,45.87
2018-03-26T15:12:57.294Z,45.03
2018-03-26T15:15:24.887Z,43.63
2018-03-26T15:17:52.488Z,50.97
2018-03-26T15:20:20.086Z,38.13
2018-03-26T15:22:47.931Z,41.57
2018-03-26T15:25:15.520Z,40.90
2018-03-26T15:27:43.110Z,53.87
2018-03-26T15:30:10.811Z,53.17
2018-03-26T15:32:38.607Z,44.27
2018-03-26T15:35:06.422Z,40.90
2018-03-26T15:37:34.242Z,51.67
2018-03-26T15:40:01.948Z,49.10
2018-03-26T15:42:29.777Z,56.30
2018-03-26T15:44:57.595Z,40.47
2018-03-26T15:47:25.199Z,51.90
2018-03-26T15:49:53.032Z,54.50
2018-03-26T15:52:20.852Z,53.57
2018-03-26T15:54:48.462Z,68.10
2018-03-26T15:57:16.106Z,57.50
2018-03-26T15:59:43.864Z,80.47
2018-03-26T16:02:10.889Z,63.07
2018-03-26T16:04:38.534Z,83.63
2018-03-26T16:07:06.133Z,42.07
2018-03-26T16:09:33.748Z,62.83
2018-03-26T16:12:01.346Z,61.83
2018-03-26T16:14:29.330Z,53.97
2018-03-26T16:16:57.133Z,45.37
2018-03-26T16:19:24.919Z,51.57
2018-03-26T16:21:52.765Z,40.83
2018-03-26T16:24:20.363Z,49.57
2018-03-26T16:26:47.981Z,52.13
2018-03-26T16:29:15.611Z,42.50
2018-03-26T16:31:43.259Z,43.93
2018-03-26T16:34:10.858Z,41.17
2018-03-26T16:36:38.674Z,55.93
2018-03-26T16:39:06.558Z,41.93
2018-03-26T16:41:45.862Z,43.17
2018-03-26T16:44:13.490Z,42.73
2018-03-26T16:46:41.101Z,37.73
2018-03-26T16:49:09.005Z,39.67
2018-03-26T16:51:36.742Z,38.70
2018-03-26T16:54:04.365Z,37.07
2018-03-26T16:56:32.161Z,38.73
2018-03-26T16:58:59.754Z,39.43
2018-03-26T17:01:27.359Z,41.07
2018-03-26T17:03:54.954Z,45.17
2018-03-26T17:06:22.606Z,40.27
2018-03-26T17:08:50.195Z,39.43
2018-03-26T17:11:17.784Z,44.13
2018-03-26T17:13:45.377Z,50.30
2018-03-26T17:16:13.203Z,47.90
2018-03-26T17:18:41.022Z,71.03
2018-03-26T17:21:08.725Z,46.93
2018-03-26T17:23:36.475Z,56.23
2018-03-26T17:26:04.132Z,42.93
2018-03-26T17:28:31.896Z,52.80
2018-03-26T17:30:59.503Z,35.73
2018-03-26T17:33:27.096Z,34.30
2018-03-26T17:35:54.949Z,36.93
2018-03-26T17:38:22.538Z,38.37
2018-03-26T17:40:50.197Z,41.77
2018-03-26T17:43:17.971Z,40.57
2018-03-26T17:45:45.720Z,34.07
2018-03-26T17:48:13.502Z,35.00
2018-03-26T17:50:41.258Z,38.43
2018-03-26T17:53:09.077Z,35.70
2018-03-26T17:55:36.895Z,37.17
2018-03-26T17:58:04.562Z,44.50
2018-03-26T18:00:32.174Z,40.00
2018-03-26T18:02:59.776Z,42.10
2018-03-26T18:05:27.382Z,48.93
2018-03-26T18:07:55.158Z,42.80
2018-03-26T18:10:23.015Z,46.70
2018-03-26T18:12:50.703Z,55.17
2018-03-26T18:15:18.388Z,51.97
2018-03-26T18:17:45.992Z,46.00
2018-03-26T18:20:14.125Z,45.63
2018-03-26T18:22:41.995Z,46.47
2018-03-26T18:25:09.581Z,55.30
2018-03-26T18:27:37.191Z,56.70
2018-03-26T18:30:04.864Z,45.00
2018-03-26T18:32:32.767Z,41.53
2018-03-26T18:35:00.588Z,51.30
2018-03-26T18:37:28.188Z,40.00
2018-03-26T18:39:55.783Z,41.87
2018-03-26T18:42:23.378Z,44.47
2018-03-26T18:44:51.158Z,46.23
2018-03-26T18:47:18.978Z,40.93
2018-03-26T18:49:46.675Z,53.27
2018-03-26T18:52:14.258Z,47.13
2018-03-26T18:54:41.993Z,50.50
2018-03-26T18:57:09.607Z,44.83
2018-03-26T18:59:37.215Z,42.50
2018-03-26T19:02:04.826Z,42.60
2018-03-26T19:04:32.420Z,40.70
2018-03-26T19:07:00.198Z,41.50
2018-03-26T19:09:27.774Z,39.97
2018-03-26T19:11:56.271Z,44.13
2018-03-26T19:14:24.047Z,52.63
2018-03-26T19:16:51.673Z,46.27
2018-03-26T19:19:19.513Z,38.43
2018-03-26T19:21:47.114Z,42.60
2018-03-26T19:24:14.770Z,51.10
2018-03-26T19:26:42.568Z,48.90
2018-03-26T19:29:10.170Z,59.80
2018-03-26T19:31:37.782Z,58.73
2018-03-26T19:34:05.374Z,45.70
2018-03-26T19:36:32.970Z,41.13
2018-03-26T19:39:00.574Z,42.27
2018-03-26T19:41:28.288Z,56.57
2018-03-26T19:43:55.879Z,44.80
2018-03-26T19:46:23.711Z,44.77
2018-03-26T19:48:51.537Z,43.90
2018-03-26T19:51:19.127Z,44.47
2018-03-26T19:53:46.783Z,47.67
2018-03-26T19:56:14.586Z,47.67
2018-03-26T19:58:42.251Z,42.10
2018-03-26T20:01:09.911Z,43.90
2018-03-26T20:03:37.744Z,49.67
2018-03-26T20:06:05.540Z,54.40
2018-03-26T20:08:33.131Z,48.10
2018-03-26T20:11:00.734Z,51.53
2018-03-26T20:13:28.330Z,48.13
2018-03-26T20:15:55.928Z,42.13
2018-03-26T20:18:23.522Z,41.93
2018-03-26T20:20:51.535Z,56.33
2018-03-26T20:23:19.232Z,86.50
2018-03-26T20:25:47.002Z,183.60
2018-03-26T20:28:14.669Z,170.30
2018-03-26T20:30:42.274Z,56.17
2018-03-26T20:33:09.865Z,53.97
2018-03-26T20:35:37.486Z,68.17
2018-03-26T20:38:05.091Z,68.37
2018-03-26T20:40:32.753Z,49.30
2018-03-26T20:43:00.349Z,44.73
2018-03-26T20:45:27.937Z,48.67
2018-03-26T20:47:55.532Z,42.50
2018-03-26T20:50:23.143Z,40.73
2018-03-26T20:52:50.787Z,43.83
2018-03-26T20:55:18.616Z,42.73
2018-03-26T20:57:46.273Z,45.90
2018-03-26T21:00:14.154Z,43.77
2018-03-26T21:02:41.741Z,44.93
2018-03-26T21:05:09.589Z,42.63
2018-03-26T21:07:37.182Z,41.90
2018-03-26T21:10:04.891Z,40.63
2018-03-26T21:12:32.643Z,40.70
2018-03-26T21:15:00.252Z,44.80
2018-03-26T21:17:27.885Z,43.00
2018-03-26T21:19:55.487Z,46.20
2018-03-26T21:22:23.166Z,47.37
2018-03-26T21:24:50.749Z,48.33
2018-03-26T21:27:18.349Z,49.07
2018-03-26T21:29:46.050Z,45.93
2018-03-26T21:32:13.672Z,47.33
2018-03-26T21:34:41.342Z,47.73
2018-03-26T21:37:08.944Z,47.57
2018-03-26T21:39:36.546Z,46.50
2018-03-26T21:42:04.397Z,43.77
2018-03-26T21:44:32.010Z,44.17
2018-03-26T21:46:59.796Z,44.90
2018-03-26T21:49:27.614Z,45.67
2018-03-26T21:51:55.266Z,46.80
2018-03-26T21:54:22.866Z,43.13
2018-03-26T21:56:50.458Z,43.27
2018-03-26T21:59:18.285Z,42.40
2018-03-26T22:01:46.105Z,45.37
2018-03-26T22:04:13.923Z,40.80
2018-03-26T22:06:41.555Z,40.50
2018-03-26T22:09:09.214Z,44.50
2018-03-26T22:11:37.042Z,42.53
2018-03-26T22:14:04.673Z,44.47
2018-03-26T22:16:32.269Z,45.53
2018-03-26T22:18:59.872Z,44.80
2018-03-26T22:21:27.469Z,45.87
2018-03-26T22:23:55.247Z,38.77
2018-03-26T22:26:22.939Z,42.37
2018-03-26T22:28:50.548Z,40.97
2018-03-26T22:31:18.297Z,40.03
2018-03-26T22:33:46.139Z,44.90
2018-03-26T22:36:13.844Z,47.03
2018-03-26T22:38:41.677Z,47.20
2018-03-26T22:41:09.266Z,47.60
2018-03-26T22:43:36.906Z,47.13
2018-03-26T22:46:04.696Z,47.90
2018-03-26T22:48:32.453Z,47.50
2018-03-26T22:51:00.226Z,48.17
2018-03-26T22:53:27.805Z,47.70
2018-03-26T22:55:55.501Z,47.03
2018-03-26T22:58:23.090Z,46.20
2018-03-26T23:00:50.753Z,45.80
2018-03-26T23:03:18.342Z,44.40
2018-03-26T23:05:45.933Z,47.47
2018-03-26T23:08:13.549Z,44.03
2018-03-26T23:10:41.134Z,45.10
2018-03-26T23:13:08.746Z,44.90
2018-03-26T23:15:36.326Z,44.50
2018-03-26T23:18:04.017Z,46.57
2018-03-26T23:20:31.608Z,46.67
2018-03-26T23:22:59.285Z,46.13
2018-03-26T23:25:27.118Z,45.63
2018-03-26T23:27:54.702Z,44.73
2018-03-26T23:30:22.306Z,49.87
2018-03-26T23:32:50.051Z,48.33
2018-03-26T23:35:17.693Z,47.73
2018-03-26T23:37:45.281Z,47.57
2018-03-26T23:40:12.866Z,48.33
2018-03-26T23:42:40.529Z,46.63
2018-03-26T23:45:08.102Z,48.63
2018-03-26T23:47:35.878Z,47.63
2018-03-26T23:50:03.664Z,47.13
2018-03-26T23:52:31.330Z,45.13
2018-03-26T23:54:58.910Z,42.73
2018-03-26T23:57:26.497Z,45.33
2018-03-26T23:59:54.230Z,44.53
